createdAt,value
2019-05-02T00:01:22.711Z,93.90
2019-05-02T00:03:51.234Z,94.00
2019-05-02T00:06:19.789Z,94.10
2019-05-02T00:08:48.573Z,94.00
2019-05-02T00:11:19.687Z,93.80
2019-05-02T00:13:48.418Z,93.90
2019-05-02T00:16:17.084Z,93.80
2019-05-02T00:18:45.737Z,93.70
2019-05-02T00:21:14.333Z,93.70
2019-05-02T00:23:42.859Z,93.70
2019-05-02T00:26:11.545Z,93.80
2019-05-02T00:28:43.010Z,93.40
2019-05-02T00:31:11.541Z,93.20
2019-05-02T00:33:40.511Z,93.20
2019-05-02T00:36:09.134Z,93.20
2019-05-02T00:38:38.335Z,93.20
2019-05-02T00:41:07.925Z,93.20
2019-05-02T00:43:36.498Z,93.10
2019-05-02T00:46:05.119Z,93.30
2019-05-02T00:48:43.876Z,93.40
2019-05-02T00:51:12.417Z,93.90
2019-05-02T00:53:44.451Z,93.90
2019-05-02T00:56:12.796Z,94.20
2019-05-02T00:58:41.337Z,94.80
2019-05-02T01:01:31.017Z,95.00
2019-05-02T01:04:01.300Z,95.00
2019-05-02T01:06:29.714Z,94.60
2019-05-02T01:08:58.318Z,94.70
2019-05-02T01:11:28.293Z,94.70
2019-05-02T01:13:57.765Z,95.10
2019-05-02T01:16:26.410Z,95.10
2019-05-02T01:18:55.028Z,94.80
2019-05-02T01:21:23.482Z,94.60
2019-05-02T01:23:51.918Z,94.90
2019-05-02T01:26:24.264Z,95.00
2019-05-02T01:28:55.555Z,95.10
2019-05-02T01:31:28.733Z,95.10
2019-05-02T01:34:06.838Z,95.20
2019-05-02T01:36:41.077Z,95.30
2019-05-02T01:39:11.429Z,95.30
2019-05-02T01:41:40.017Z,95.30
2019-05-02T01:44:08.579Z,95.10
2019-05-02T01:46:37.008Z,95.40
2019-05-02T01:49:06.617Z,95.30
2019-05-02T01:51:36.759Z,95.30
2019-05-02T01:54:09.983Z,95.60
2019-05-02T01:56:35.668Z,95.80
2019-05-02T01:59:04.275Z,96.00
2019-05-02T02:01:32.763Z,96.10
2019-05-02T02:04:01.287Z,96.30
2019-05-02T02:06:29.747Z,96.40
2019-05-02T02:08:58.161Z,96.50
2019-05-02T02:11:28.318Z,96.50
2019-05-02T02:13:56.766Z,96.70
2019-05-02T02:16:25.235Z,96.90
2019-05-02T02:18:59.073Z,97.00
2019-05-02T02:21:42.997Z,97.10
2019-05-02T02:24:13.326Z,97.20
2019-05-02T02:26:43.671Z,97.20
2019-05-02T02:29:12.230Z,97.20
2019-05-02T02:31:46.434Z,97.50
2019-05-02T02:34:10.943Z,97.70
2019-05-02T02:36:39.417Z,97.70
2019-05-02T02:39:14.443Z,97.60
2019-05-02T02:41:38.470Z,97.80
2019-05-02T02:44:14.711Z,97.80
2019-05-02T02:46:44.949Z,97.80
2019-05-02T02:49:21.638Z,97.60
2019-05-02T02:51:43.656Z,97.70
2019-05-02T02:54:12.135Z,97.80
2019-05-02T02:56:42.524Z,97.90
2019-05-02T02:59:11.503Z,97.90
2019-05-02T03:01:40.097Z,97.80
2019-05-02T03:04:11.759Z,97.80
2019-05-02T03:06:45.002Z,97.80
2019-05-02T03:09:09.269Z,97.30
2019-05-02T03:11:39.369Z,97.40
2019-05-02T03:14:09.853Z,97.50
2019-05-02T03:16:45.950Z,97.30
2019-05-02T03:19:14.869Z,97.20
2019-05-02T03:21:41.992Z,97.40
2019-05-02T03:24:10.603Z,97.60
2019-05-02T03:26:39.171Z,97.80
2019-05-02T03:29:09.171Z,98.00
2019-05-02T03:31:37.740Z,98.10
2019-05-02T03:34:06.398Z,98.10
2019-05-02T03:36:37.102Z,98.00
2019-05-02T03:39:14.990Z,98.20
2019-05-02T03:41:37.423Z,98.00
2019-05-02T03:44:11.242Z,98.00
2019-05-02T03:46:36.234Z,98.20
2019-05-02T03:49:07.224Z,98.30
2019-05-02T03:51:35.138Z,98.30
2019-05-02T03:54:07.283Z,98.50
2019-05-02T03:56:34.029Z,98.40
2019-05-02T03:59:02.492Z,98.40
2019-05-02T04:01:34.684Z,98.40
2019-05-02T04:04:02.663Z,98.00
2019-05-02T04:06:31.560Z,98.20
2019-05-02T04:09:01.889Z,98.60
2019-05-02T04:11:37.865Z,98.90
2019-05-02T04:14:00.681Z,99.00
2019-05-02T04:16:30.667Z,98.80
2019-05-02T04:19:01.734Z,98.70
2019-05-02T04:21:30.380Z,98.60
2019-05-02T04:24:12.801Z,98.50
2019-05-02T04:26:29.131Z,98.50
2019-05-02T04:28:58.017Z,98.50
2019-05-02T04:31:31.588Z,98.50
2019-05-02T04:33:56.839Z,98.40
2019-05-02T04:36:25.402Z,98.30
2019-05-02T04:38:53.822Z,98.20
2019-05-02T04:41:28.748Z,98.10
2019-05-02T04:43:57.257Z,98.00
2019-05-02T04:46:28.159Z,97.90
2019-05-02T04:48:53.325Z,97.90
2019-05-02T04:51:21.812Z,97.80
2019-05-02T04:53:50.308Z,97.60
2019-05-02T04:56:18.946Z,97.70
2019-05-02T04:58:49.551Z,97.50
2019-05-02T05:01:20.962Z,97.30
2019-05-02T05:03:57.393Z,96.90
2019-05-02T05:06:20.401Z,96.60
2019-05-02T05:08:48.969Z,96.50
2019-05-02T05:11:20.814Z,96.40
2019-05-02T05:13:48.039Z,96.50
2019-05-02T05:16:18.557Z,96.30
2019-05-02T05:18:49.306Z,95.90
2019-05-02T05:21:17.955Z,95.60
2019-05-02T05:24:01.165Z,95.40
2019-05-02T05:26:29.005Z,95.40
2019-05-02T05:28:58.385Z,94.70
2019-05-02T05:31:29.237Z,94.10
2019-05-02T05:33:57.911Z,93.90
2019-05-02T05:36:32.656Z,93.80
2019-05-02T05:38:58.300Z,93.50
2019-05-02T05:41:27.762Z,92.90
2019-05-02T05:43:57.348Z,92.30
2019-05-02T05:46:28.023Z,91.90
2019-05-02T05:48:58.200Z,91.90
2019-05-02T05:51:27.653Z,92.40
2019-05-02T05:53:59.524Z,92.00
2019-05-02T05:56:27.993Z,91.50
2019-05-02T05:58:58.914Z,90.80
2019-05-02T06:01:34.026Z,90.40
2019-05-02T06:03:58.042Z,90.40
2019-05-02T06:06:27.415Z,90.70
2019-05-02T06:08:56.055Z,90.80
2019-05-02T06:11:24.635Z,90.90
2019-05-02T06:13:53.063Z,90.80
2019-05-02T06:16:21.596Z,90.50
2019-05-02T06:18:50.115Z,89.40
2019-05-02T06:21:18.570Z,90.00
2019-05-02T06:23:47.207Z,88.70
2019-05-02T06:26:15.908Z,87.60
2019-05-02T06:28:44.486Z,86.00
2019-05-02T06:31:12.910Z,86.00
2019-05-02T06:33:41.595Z,86.40
2019-05-02T06:36:10.206Z,86.90
2019-05-02T06:38:38.770Z,86.90
2019-05-02T06:41:07.239Z,87.00
2019-05-02T06:43:35.818Z,86.60
2019-05-02T06:46:15.481Z,86.70
2019-05-02T06:48:34.888Z,87.10
2019-05-02T06:51:03.539Z,87.30
2019-05-02T06:53:34.991Z,86.60
2019-05-02T06:56:02.353Z,86.70
2019-05-02T06:58:30.897Z,86.70
2019-05-02T07:00:59.386Z,86.40
2019-05-02T07:03:27.939Z,85.90
2019-05-02T07:05:58.744Z,86.80
2019-05-02T07:08:26.769Z,85.80
2019-05-02T07:10:55.887Z,85.10
2019-05-02T07:13:25.720Z,83.60
2019-05-02T07:15:55.900Z,82.60
2019-05-02T07:18:29.079Z,81.90
2019-05-02T07:20:57.589Z,81.60
2019-05-02T07:23:26.074Z,80.90
2019-05-02T07:25:54.754Z,78.10
2019-05-02T07:28:24.101Z,79.50
2019-05-02T07:30:54.658Z,80.40
2019-05-02T07:33:23.481Z,77.30
2019-05-02T07:35:55.270Z,77.80
2019-05-02T07:38:25.677Z,77.20
2019-05-02T07:40:53.072Z,78.70
2019-05-02T07:43:22.709Z,77.60
2019-05-02T07:45:51.188Z,75.00
2019-05-02T07:48:19.703Z,75.60
2019-05-02T07:50:48.417Z,78.20
2019-05-02T07:53:16.938Z,77.40
2019-05-02T07:55:45.418Z,78.70
2019-05-02T07:58:13.826Z,79.40
2019-05-02T08:00:42.414Z,78.70
2019-05-02T08:03:10.906Z,75.60
2019-05-02T08:05:39.439Z,75.50
2019-05-02T08:08:08.162Z,78.60
2019-05-02T08:10:36.693Z,79.80
2019-05-02T08:13:05.355Z,77.30
2019-05-02T08:15:33.907Z,79.20
2019-05-02T08:18:02.540Z,80.40
2019-05-02T08:20:31.048Z,80.50
2019-05-02T08:22:59.624Z,81.50
2019-05-02T08:25:28.264Z,82.60
2019-05-02T08:27:58.559Z,82.30
2019-05-02T08:30:28.911Z,83.50
2019-05-02T08:32:57.393Z,82.60
2019-05-02T08:35:28.126Z,81.10
2019-05-02T08:37:56.693Z,81.30
2019-05-02T08:40:25.386Z,81.90
2019-05-02T08:42:53.969Z,81.70
2019-05-02T08:45:22.647Z,81.30
2019-05-02T08:47:51.223Z,80.10
2019-05-02T08:50:19.806Z,79.60
2019-05-02T08:52:48.511Z,78.20
2019-05-02T08:55:17.119Z,77.90
2019-05-02T08:57:45.666Z,78.20
2019-05-02T09:00:14.980Z,79.10
2019-05-02T09:02:43.464Z,80.20
2019-05-02T09:05:12.538Z,80.10
2019-05-02T09:07:42.902Z,78.10
2019-05-02T09:10:11.931Z,78.40
2019-05-02T09:12:43.674Z,78.80
2019-05-02T09:15:11.822Z,80.00
2019-05-02T09:17:44.663Z,79.00
2019-05-02T09:20:16.591Z,77.80
2019-05-02T09:22:41.861Z,78.50
2019-05-02T09:25:12.588Z,75.50
2019-05-02T09:27:42.112Z,75.20
2019-05-02T09:30:12.085Z,75.20
2019-05-02T09:32:41.881Z,74.90
2019-05-02T09:35:11.713Z,74.10
2019-05-02T09:37:41.971Z,73.50
2019-05-02T09:40:12.489Z,71.20
2019-05-02T09:42:43.017Z,72.80
2019-05-02T09:45:15.966Z,73.10
2019-05-02T09:47:56.628Z,74.80
2019-05-02T09:50:20.697Z,73.60
2019-05-02T09:52:47.693Z,72.50
2019-05-02T09:55:17.338Z,73.70
2019-05-02T09:57:45.974Z,74.50
2019-05-02T10:00:32.302Z,73.70
2019-05-02T10:02:57.569Z,70.60
2019-05-02T10:05:26.176Z,68.30
2019-05-02T10:07:57.399Z,67.10
2019-05-02T10:10:25.340Z,66.40
2019-05-02T10:12:54.102Z,63.20
2019-05-02T10:15:22.707Z,67.20
2019-05-02T10:17:51.944Z,64.70
2019-05-02T10:20:23.633Z,62.80
2019-05-02T10:22:52.850Z,62.20
2019-05-02T10:25:23.033Z,62.30
2019-05-02T10:27:52.358Z,60.90
2019-05-02T10:30:22.918Z,61.50
2019-05-02T10:32:55.657Z,61.10
2019-05-02T10:35:28.148Z,60.40
2019-05-02T10:37:53.724Z,59.80
2019-05-02T10:40:22.591Z,59.30
2019-05-02T10:42:52.254Z,58.80
2019-05-02T10:45:22.548Z,60.60
2019-05-02T10:47:52.735Z,59.20
2019-05-02T10:50:25.700Z,59.00
2019-05-02T10:52:54.184Z,57.60
2019-05-02T10:55:24.319Z,57.60
2019-05-02T10:57:52.869Z,57.50
2019-05-02T11:00:24.043Z,58.10
2019-05-02T11:03:12.075Z,58.70
2019-05-02T11:05:42.427Z,58.30
2019-05-02T11:08:12.000Z,58.40
2019-05-02T11:10:42.999Z,56.60
2019-05-02T11:13:18.885Z,57.40
2019-05-02T11:16:04.590Z,59.70
2019-05-02T11:18:52.720Z,60.20
2019-05-02T11:21:22.933Z,57.50
2019-05-02T11:23:52.579Z,56.40
2019-05-02T11:26:24.884Z,55.60
2019-05-02T11:28:52.212Z,55.00
2019-05-02T11:31:21.853Z,54.90
2019-05-02T11:33:53.240Z,53.90
2019-05-02T11:36:23.369Z,53.30
2019-05-02T11:39:00.711Z,53.60
2019-05-02T11:41:24.077Z,53.60
2019-05-02T11:43:55.773Z,53.20
2019-05-02T11:46:23.203Z,53.90
2019-05-02T11:48:56.263Z,51.90
2019-05-02T11:51:22.775Z,52.80
2019-05-02T11:53:52.746Z,52.80
2019-05-02T11:56:22.227Z,52.50
2019-05-02T11:58:52.876Z,52.50
2019-05-02T12:01:35.430Z,55.10
2019-05-02T12:03:54.683Z,53.60
2019-05-02T12:06:23.355Z,54.90
2019-05-02T12:08:52.764Z,55.20
2019-05-02T12:11:26.972Z,54.10
2019-05-02T12:13:58.465Z,54.60
2019-05-02T12:16:27.332Z,54.60
2019-05-02T12:19:08.517Z,54.10
2019-05-02T12:21:26.081Z,52.30
2019-05-02T12:23:54.564Z,51.20
2019-05-02T12:26:23.149Z,51.10
2019-05-02T12:28:52.633Z,51.80
2019-05-02T12:31:24.359Z,50.50
2019-05-02T12:33:52.958Z,50.00
2019-05-02T12:36:22.734Z,50.30
2019-05-02T12:38:52.768Z,51.20
2019-05-02T12:41:24.573Z,51.40
2019-05-02T12:43:52.434Z,52.10
2019-05-02T12:46:22.200Z,50.90
2019-05-02T12:48:51.953Z,50.40
2019-05-02T12:51:23.835Z,50.50
2019-05-02T12:53:52.962Z,51.10
2019-05-02T12:56:22.871Z,50.70
2019-05-02T12:58:53.022Z,50.00
2019-05-02T13:01:22.068Z,50.30
2019-05-02T13:03:52.413Z,49.20
2019-05-02T13:06:21.949Z,46.60
2019-05-02T13:08:52.490Z,46.50
2019-05-02T13:11:29.151Z,47.30
2019-05-02T13:13:58.491Z,46.70
2019-05-02T13:16:27.101Z,44.80
2019-05-02T13:18:57.269Z,43.50
2019-05-02T13:21:39.239Z,44.80
2019-05-02T13:23:59.690Z,45.10
2019-05-02T13:26:32.050Z,44.90
2019-05-02T13:28:59.251Z,45.00
2019-05-02T13:31:38.464Z,45.70
2019-05-02T13:34:22.085Z,47.40
2019-05-02T13:36:52.464Z,48.40
2019-05-02T13:39:26.021Z,49.20
2019-05-02T13:41:54.852Z,49.60
2019-05-02T13:44:25.027Z,48.40
2019-05-02T13:46:53.658Z,47.80
2019-05-02T13:49:22.238Z,48.60
2019-05-02T13:51:52.113Z,48.40
2019-05-02T13:54:22.161Z,49.00
2019-05-02T13:56:52.903Z,48.30
2019-05-02T13:59:22.175Z,48.60
2019-05-02T14:01:52.809Z,48.40
2019-05-02T14:04:23.161Z,49.50
2019-05-02T14:06:52.885Z,50.00
2019-05-02T14:09:32.832Z,50.90
2019-05-02T14:12:17.699Z,51.60
2019-05-02T14:14:46.188Z,52.90
2019-05-02T14:17:14.650Z,53.00
2019-05-02T14:19:43.097Z,52.50
2019-05-02T14:22:12.896Z,51.90
2019-05-02T14:24:42.198Z,52.50
2019-05-02T14:27:12.796Z,52.80
2019-05-02T14:29:42.376Z,53.80
2019-05-02T14:32:21.319Z,54.60
2019-05-02T14:34:42.935Z,55.20
2019-05-02T14:37:11.883Z,56.00
2019-05-02T14:39:41.649Z,56.40
2019-05-02T14:42:13.529Z,56.50
2019-05-02T14:45:04.425Z,56.00
2019-05-02T14:47:18.200Z,55.60
2019-05-02T14:49:42.936Z,55.20
2019-05-02T14:52:12.653Z,55.10
2019-05-02T14:54:43.830Z,54.50
2019-05-02T14:57:17.301Z,54.30
2019-05-02T14:59:50.325Z,54.50
2019-05-02T15:02:18.016Z,54.90
2019-05-02T15:04:48.853Z,52.60
2019-05-02T15:07:17.537Z,52.50
2019-05-02T15:09:48.414Z,51.20
2019-05-02T15:12:19.010Z,52.10
2019-05-02T15:14:49.724Z,50.50
2019-05-02T15:17:17.282Z,51.10
2019-05-02T15:19:45.738Z,50.20
2019-05-02T15:22:14.219Z,49.40
2019-05-02T15:24:42.690Z,50.00
2019-05-02T15:27:16.627Z,50.60
2019-05-02T15:29:41.990Z,50.30
2019-05-02T15:32:15.310Z,49.50
2019-05-02T15:35:02.413Z,49.50
2019-05-02T15:37:32.137Z,50.50
2019-05-02T15:42:32.263Z,50.40
2019-05-02T15:45:02.059Z,50.20
2019-05-02T15:47:32.039Z,50.90
2019-05-02T15:50:02.834Z,52.40
2019-05-02T15:52:32.710Z,52.60
2019-05-02T15:55:03.615Z,51.10
2019-05-02T15:57:40.976Z,50.90
2019-05-02T16:00:02.385Z,51.60
2019-05-02T16:02:32.494Z,52.10
2019-05-02T16:05:02.422Z,52.70
2019-05-02T16:07:32.637Z,52.80
2019-05-02T16:10:03.762Z,53.10
2019-05-02T16:12:35.546Z,52.80
2019-05-02T16:15:02.761Z,52.80
2019-05-02T16:17:33.477Z,53.50
2019-05-02T16:20:13.422Z,53.60
2019-05-02T16:22:46.194Z,53.20
2019-05-02T16:25:13.224Z,53.80
2019-05-02T16:27:45.527Z,53.90
2019-05-02T16:30:17.128Z,54.00
2019-05-02T16:32:47.359Z,54.10
2019-05-02T16:35:17.620Z,54.40
2019-05-02T16:37:46.860Z,53.80
2019-05-02T16:40:22.146Z,54.30
2019-05-02T16:42:48.409Z,55.20
2019-05-02T16:45:17.287Z,54.40
2019-05-02T16:47:49.776Z,54.70
2019-05-02T16:50:18.678Z,54.10
2019-05-02T16:52:47.460Z,53.10
2019-05-02T16:55:21.273Z,52.90
2019-05-02T16:57:48.857Z,53.90
2019-05-02T17:00:22.574Z,55.90
2019-05-02T17:02:51.108Z,53.70
2019-05-02T17:05:21.968Z,53.20
2019-05-02T17:07:52.849Z,53.90
2019-05-02T17:10:23.299Z,53.70
2019-05-02T17:12:55.038Z,53.90
2019-05-02T17:15:31.137Z,54.40
2019-05-02T17:17:58.216Z,54.80
2019-05-02T17:20:26.820Z,55.10
2019-05-02T17:23:02.154Z,55.40
2019-05-02T17:25:26.705Z,55.40
2019-05-02T17:28:01.248Z,56.70
2019-05-02T17:30:25.837Z,55.90
2019-05-02T17:32:54.370Z,56.80
2019-05-02T17:35:23.234Z,58.00
2019-05-02T17:37:52.616Z,58.20
2019-05-02T17:40:22.568Z,57.80
2019-05-02T17:42:52.511Z,58.70
2019-05-02T17:45:23.645Z,58.50
2019-05-02T17:47:51.481Z,58.80
2019-05-02T17:50:22.144Z,59.20
2019-05-02T17:52:56.086Z,60.20
2019-05-02T17:55:22.533Z,59.40
2019-05-02T17:57:51.611Z,59.50
2019-05-02T18:00:22.935Z,60.00
2019-05-02T18:02:52.017Z,60.70
2019-05-02T18:05:21.936Z,60.50
2019-05-02T18:07:52.644Z,61.00
2019-05-02T18:10:23.006Z,60.70
2019-05-02T18:12:56.574Z,60.60
2019-05-02T18:15:22.811Z,59.70
2019-05-02T18:17:52.381Z,60.10
2019-05-02T18:20:21.929Z,59.90
2019-05-02T18:22:51.990Z,59.80
2019-05-02T18:25:21.617Z,60.40
2019-05-02T18:27:51.777Z,60.20
2019-05-02T18:30:22.829Z,55.90
2019-05-02T18:32:52.852Z,54.40
2019-05-02T18:35:22.020Z,52.60
2019-05-02T18:37:51.750Z,51.90
2019-05-02T18:40:27.931Z,51.90
2019-05-02T18:42:51.923Z,51.80
2019-05-02T18:45:28.553Z,51.90
2019-05-02T18:48:02.257Z,52.40
2019-05-02T18:50:36.794Z,52.90
2019-05-02T18:53:03.524Z,53.80
2019-05-02T18:55:32.343Z,55.20
2019-05-02T18:58:04.310Z,62.20
2019-05-02T19:00:37.622Z,76.50
2019-05-02T19:03:02.742Z,84.00
2019-05-02T19:05:32.546Z,86.90
2019-05-02T19:08:02.442Z,88.60
2019-05-02T19:10:32.372Z,90.40
2019-05-02T19:13:04.466Z,90.50
2019-05-02T19:15:34.383Z,90.80
2019-05-02T19:18:02.601Z,91.50
2019-05-02T19:20:34.377Z,92.40
2019-05-02T19:23:03.050Z,93.30
2019-05-02T19:25:32.226Z,95.10
2019-05-02T19:28:08.395Z,95.20
2019-05-02T19:30:38.683Z,95.80
2019-05-02T19:33:07.988Z,96.50
2019-05-02T19:35:37.537Z,96.80
2019-05-02T19:38:07.013Z,97.00
2019-05-02T19:40:35.582Z,97.70
2019-05-02T19:43:07.631Z,99.00
2019-05-02T19:45:34.486Z,99.30
2019-05-02T19:48:02.973Z,98.10
2019-05-02T19:50:40.275Z,97.70
2019-05-02T19:53:04.659Z,97.70
2019-05-02T19:55:33.115Z,97.90
2019-05-02T19:58:06.262Z,96.80
2019-05-02T20:00:36.467Z,96.00
2019-05-02T20:03:02.287Z,96.10
2019-05-02T20:05:32.272Z,96.60
2019-05-02T20:08:02.507Z,96.70
2019-05-02T20:10:32.177Z,96.90
2019-05-02T20:13:02.937Z,97.20
2019-05-02T20:15:32.917Z,97.00
2019-05-02T20:18:04.630Z,97.20
2019-05-02T20:20:45.034Z,97.60
2019-05-02T20:23:17.964Z,97.70
2019-05-02T20:25:43.676Z,98.10
2019-05-02T20:28:12.253Z,98.40
2019-05-02T20:30:42.137Z,97.90
2019-05-02T20:33:12.718Z,97.40
2019-05-02T20:35:42.185Z,97.20
2019-05-02T20:38:11.746Z,97.00
2019-05-02T20:40:42.621Z,97.60
2019-05-02T20:43:12.124Z,97.80
2019-05-02T20:45:40.842Z,98.70
2019-05-02T20:48:09.435Z,98.30
2019-05-02T20:50:37.989Z,98.40
2019-05-02T20:53:06.506Z,98.10
2019-05-02T20:55:35.035Z,97.60
2019-05-02T20:58:03.495Z,97.80
2019-05-02T21:00:32.403Z,98.40
2019-05-02T21:03:02.700Z,98.60
2019-05-02T21:05:35.686Z,98.80
2019-05-02T21:08:18.578Z,98.10
2019-05-02T21:10:55.061Z,98.30
2019-05-02T21:13:23.617Z,98.80
2019-05-02T21:15:52.483Z,99.00
2019-05-02T21:18:22.100Z,98.70
2019-05-02T21:20:52.597Z,99.00
2019-05-02T21:23:21.836Z,97.80
2019-05-02T21:25:52.377Z,98.50
2019-05-02T21:28:22.683Z,98.40
2019-05-02T21:30:52.426Z,97.80
2019-05-02T21:33:35.820Z,95.10
2019-05-02T21:36:03.746Z,93.50
2019-05-02T21:38:32.189Z,92.30
2019-05-02T21:41:00.670Z,91.70
2019-05-02T21:43:29.263Z,91.80
2019-05-02T21:45:57.880Z,92.20
2019-05-02T21:48:27.658Z,92.30
2019-05-02T21:50:57.852Z,92.70
2019-05-02T21:53:27.974Z,93.00
2019-05-02T21:56:06.852Z,92.80
2019-05-02T21:58:35.278Z,93.20
2019-05-02T22:01:08.441Z,93.20
2019-05-02T22:03:37.150Z,93.30
2019-05-02T22:06:05.837Z,94.80
2019-05-02T22:08:34.957Z,96.30
2019-05-02T22:11:03.637Z,96.60
2019-05-02T22:13:32.144Z,96.80
2019-05-02T22:16:02.323Z,96.60
2019-05-02T22:18:32.154Z,96.60
2019-05-02T22:21:01.731Z,96.20
2019-05-02T22:23:31.884Z,95.60
2019-05-02T22:26:02.112Z,95.90
2019-05-02T22:28:32.527Z,95.80
2019-05-02T22:31:03.011Z,96.00
2019-05-02T22:33:32.741Z,96.80
2019-05-02T22:36:01.994Z,96.20
2019-05-02T22:38:32.209Z,96.70
2019-05-02T22:41:01.730Z,96.90
2019-05-02T22:43:32.633Z,97.20
2019-05-02T22:46:02.878Z,97.40
2019-05-02T22:48:31.883Z,97.70
2019-05-02T22:51:00.427Z,98.00
2019-05-02T22:53:28.984Z,98.00
2019-05-02T22:55:57.451Z,97.80
2019-05-02T22:58:25.972Z,97.90
2019-05-02T23:00:54.535Z,97.10
2019-05-02T23:03:24.144Z,97.60
2019-05-02T23:05:52.750Z,97.80
2019-05-02T23:08:21.937Z,97.50
2019-05-02T23:10:51.918Z,97.40
2019-05-02T23:13:21.978Z,97.00
2019-05-02T23:15:52.168Z,96.70
2019-05-02T23:18:22.693Z,97.10
2019-05-02T23:20:52.622Z,97.00
2019-05-02T23:23:21.576Z,97.30
2019-05-02T23:25:55.938Z,97.30
2019-05-02T23:28:28.745Z,97.50
2019-05-02T23:30:57.263Z,97.60
2019-05-02T23:33:27.901Z,97.70
2019-05-02T23:35:56.406Z,97.60
2019-05-02T23:38:24.891Z,97.60
2019-05-02T23:40:53.379Z,97.30
2019-05-02T23:43:21.911Z,97.20
2019-05-02T23:45:51.664Z,97.40
2019-05-02T23:48:22.000Z,97.50
2019-05-02T23:50:52.054Z,97.40
2019-05-02T23:53:22.114Z,97.40
2019-05-02T23:55:50.893Z,97.60
2019-05-02T23:58:19.375Z,97.80
